createdAt,value
2022-09-23T00:02:11.861Z,1.00
2022-09-23T00:04:39.942Z,1.00
2022-09-23T00:07:08.115Z,1.00
2022-09-23T00:09:36.317Z,1.00
2022-09-23T00:12:08.806Z,1.00
2022-09-23T00:14:38.895Z,1.00
2022-09-23T00:17:07.481Z,1.00
2022-09-23T00:19:39.604Z,1.00
2022-09-23T00:22:07.950Z,1.00
2022-09-23T00:24:36.039Z,1.00
2022-09-23T00:27:04.289Z,1.00
2022-09-23T00:29:32.588Z,1.00
2022-09-23T00:32:00.943Z,1.00
2022-09-23T00:34:29.677Z,1.00
2022-09-23T00:36:59.124Z,1.00
2022-09-23T00:39:27.403Z,1.00
2022-09-23T00:41:56.061Z,1.00
2022-09-23T00:44:49.125Z,1.00
2022-09-23T00:47:23.731Z,1.00
2022-09-23T00:50:01.827Z,1.00
2022-09-23T00:52:32.783Z,1.00
2022-09-23T00:55:04.403Z,1.00
2022-09-23T00:57:33.273Z,1.00
2022-09-23T01:00:02.066Z,1.00
2022-09-23T01:02:31.024Z,1.00
2022-09-23T01:05:00.239Z,1.00
2022-09-23T01:07:28.252Z,1.00
2022-09-23T01:10:00.007Z,1.00
2022-09-23T01:12:59.223Z,1.00
2022-09-23T01:15:34.374Z,1.00
2022-09-23T01:18:13.910Z,1.00
2022-09-23T01:21:03.296Z,1.00
2022-09-23T01:24:16.021Z,1.00
2022-09-23T01:27:03.472Z,26.10
2022-09-23T01:30:10.210Z,1.00
2022-09-23T01:33:01.381Z,1.00
2022-09-23T01:35:34.340Z,1.00
2022-09-23T01:38:15.679Z,1.00
2022-09-23T01:40:51.904Z,1.00
2022-09-23T01:43:25.372Z,1.00
2022-09-23T01:45:58.045Z,1.00
2022-09-23T01:48:32.955Z,1.00
2022-09-23T01:51:08.183Z,9.20
2022-09-23T01:53:44.581Z,1.00
2022-09-23T01:56:17.132Z,1.00
2022-09-23T01:58:51.799Z,1.00
2022-09-23T02:01:27.483Z,1.00
2022-09-23T02:04:04.153Z,1.00
2022-09-23T02:06:38.225Z,1.00
2022-09-23T02:09:10.041Z,1.00
2022-09-23T02:11:39.183Z,1.00
2022-09-23T02:14:15.467Z,1.00
2022-09-23T02:16:47.955Z,1.00
2022-09-23T02:19:24.356Z,1.00
2022-09-23T02:21:58.900Z,1.00
2022-09-23T02:24:31.551Z,1.00
2022-09-23T02:27:11.920Z,1.00
2022-09-23T02:29:49.174Z,1.00
2022-09-23T02:32:22.015Z,18.90
2022-09-23T02:35:00.259Z,1.00
2022-09-23T02:37:37.221Z,1.00
2022-09-23T02:40:14.841Z,1.00
2022-09-23T02:42:55.005Z,1.00
2022-09-23T02:45:23.642Z,1.00
2022-09-23T02:47:57.468Z,1.00
2022-09-23T02:50:26.996Z,1.00
2022-09-23T02:52:55.610Z,1.00
2022-09-23T02:55:26.536Z,1.00
2022-09-23T02:57:54.697Z,1.00
2022-09-23T03:00:22.806Z,1.00
2022-09-23T03:03:06.492Z,1.00
2022-09-23T03:05:42.551Z,1.00
2022-09-23T03:08:27.173Z,1.00
2022-09-23T03:11:04.320Z,1.00
2022-09-23T03:13:38.413Z,1.00
2022-09-23T03:16:13.374Z,1.00
2022-09-23T03:18:45.842Z,1.00
2022-09-23T03:21:20.848Z,1.00
2022-09-23T03:23:50.070Z,17.50
2022-09-23T03:26:23.136Z,20.70
2022-09-23T03:28:51.861Z,99.90
2022-09-23T03:31:20.113Z,80.80
2022-09-23T03:33:51.388Z,1.80
2022-09-23T03:36:43.702Z,1.00
2022-09-23T03:39:16.109Z,1.00
2022-09-23T03:41:50.914Z,1.00
2022-09-23T03:44:20.217Z,1.00
2022-09-23T03:46:50.576Z,1.00
2022-09-23T03:49:20.594Z,1.00
2022-09-23T03:51:50.013Z,20.40
2022-09-23T03:54:19.728Z,99.90
2022-09-23T03:56:48.618Z,99.90
2022-09-23T03:59:17.265Z,97.80
2022-09-23T04:01:46.095Z,99.90
2022-09-23T04:04:14.300Z,99.90
2022-09-23T04:06:42.470Z,40.80
2022-09-23T04:09:11.906Z,1.00
2022-09-23T04:11:40.058Z,1.00
2022-09-23T04:14:08.155Z,1.00
2022-09-23T04:16:36.288Z,1.00
2022-09-23T04:19:05.097Z,1.00
2022-09-23T04:21:33.396Z,1.00
2022-09-23T04:24:01.742Z,1.00
2022-09-23T04:26:31.310Z,1.00
2022-09-23T04:28:59.560Z,1.00
2022-09-23T04:31:28.749Z,99.90
2022-09-23T04:33:57.287Z,99.90
2022-09-23T04:36:26.234Z,79.80
2022-09-23T04:38:54.374Z,47.90
2022-09-23T04:41:22.468Z,1.00
2022-09-23T04:43:51.912Z,1.00
2022-09-23T04:46:20.090Z,1.00
2022-09-23T04:48:48.192Z,53.20
2022-09-23T04:51:18.367Z,1.00
2022-09-23T04:53:48.361Z,1.00
2022-09-23T04:56:18.044Z,17.60
2022-09-23T04:58:46.621Z,15.60
2022-09-23T05:01:18.309Z,52.50
2022-09-23T05:03:47.662Z,1.00
2022-09-23T05:06:16.030Z,40.00
2022-09-23T05:08:49.040Z,99.90
2022-09-23T05:11:17.993Z,8.20
2022-09-23T05:13:46.421Z,99.90
2022-09-23T05:16:16.533Z,99.90
2022-09-23T05:18:45.557Z,99.90
2022-09-23T05:21:15.112Z,99.90
2022-09-23T05:23:44.177Z,21.50
2022-09-23T05:26:14.467Z,1.00
2022-09-23T05:28:42.665Z,99.90
2022-09-23T05:31:19.341Z,99.90
2022-09-23T05:33:51.808Z,1.00
2022-09-23T05:36:21.234Z,99.90
2022-09-23T05:38:51.210Z,99.90
2022-09-23T05:41:22.901Z,99.90
2022-09-23T05:43:51.888Z,99.90
2022-09-23T05:46:23.257Z,99.90
2022-09-23T05:48:52.952Z,99.90
2022-09-23T05:51:25.455Z,99.90
2022-09-23T05:53:58.288Z,99.90
2022-09-23T05:56:28.257Z,99.90
2022-09-23T05:58:58.098Z,99.90
2022-09-23T06:01:28.433Z,96.70
2022-09-23T06:03:59.166Z,99.90
2022-09-23T06:06:29.804Z,90.50
2022-09-23T06:08:59.332Z,99.90
2022-09-23T06:11:28.455Z,99.90
2022-09-23T06:14:01.251Z,99.90
2022-09-23T06:16:31.025Z,99.90
2022-09-23T06:19:05.808Z,99.90
2022-09-23T06:21:35.770Z,27.30
2022-09-23T06:24:04.234Z,1.00
2022-09-23T06:26:33.928Z,1.00
2022-09-23T06:29:02.945Z,1.00
2022-09-23T06:31:33.049Z,1.00
2022-09-23T06:34:11.041Z,1.00
2022-09-23T06:36:44.482Z,1.00
2022-09-23T06:39:14.715Z,1.00
2022-09-23T06:41:43.352Z,1.00
2022-09-23T06:44:11.663Z,1.00
2022-09-23T06:46:40.442Z,99.90
2022-09-23T06:49:13.371Z,99.90
2022-09-23T06:51:41.868Z,99.90
2022-09-23T06:54:11.093Z,99.90
2022-09-23T06:56:39.924Z,99.90
2022-09-23T06:59:09.029Z,99.90
2022-09-23T07:01:38.339Z,99.90
2022-09-23T07:04:07.602Z,99.90
2022-09-23T07:06:38.115Z,99.90
2022-09-23T07:09:07.664Z,99.90
2022-09-23T07:11:35.738Z,99.90
2022-09-23T07:14:03.902Z,99.90
2022-09-23T07:16:32.915Z,99.90
2022-09-23T07:19:01.815Z,99.90
2022-09-23T07:21:29.898Z,99.90
2022-09-23T07:23:59.942Z,99.90
2022-09-23T07:26:29.761Z,99.90
2022-09-23T07:29:04.834Z,99.90
2022-09-23T07:31:39.217Z,99.90
2022-09-23T07:34:10.009Z,99.90
2022-09-23T07:36:40.812Z,99.90
2022-09-23T07:39:12.971Z,99.90
2022-09-23T07:41:44.603Z,99.90
2022-09-23T07:44:13.400Z,99.90
2022-09-23T07:46:41.639Z,99.90
2022-09-23T07:49:10.472Z,99.90
2022-09-23T07:51:40.392Z,99.90
2022-09-23T07:54:11.957Z,99.90
2022-09-23T07:56:40.518Z,99.90
2022-09-23T07:59:09.784Z,99.90
2022-09-23T08:01:39.883Z,99.90
2022-09-23T08:04:13.073Z,99.90
2022-09-23T08:06:43.505Z,99.90
2022-09-23T08:09:14.155Z,99.90
2022-09-23T08:11:43.016Z,99.90
2022-09-23T08:14:13.423Z,99.90
2022-09-23T08:16:42.197Z,99.90
2022-09-23T08:19:10.615Z,99.90
2022-09-23T08:21:39.366Z,99.90
2022-09-23T08:24:07.791Z,99.90
2022-09-23T08:26:38.808Z,99.90
2022-09-23T08:29:10.403Z,99.90
2022-09-23T08:31:38.533Z,99.90
2022-09-23T08:34:07.765Z,99.90
2022-09-23T08:36:36.879Z,99.90
2022-09-23T08:39:06.328Z,99.90
2022-09-23T08:41:44.638Z,99.90
2022-09-23T08:44:17.533Z,99.90
2022-09-23T08:46:50.790Z,99.90
2022-09-23T08:49:28.551Z,99.90
2022-09-23T08:52:00.046Z,99.90
2022-09-23T08:54:32.097Z,99.90
2022-09-23T08:57:03.337Z,99.90
2022-09-23T08:59:41.369Z,99.90
2022-09-23T09:02:19.072Z,99.90
2022-09-23T09:04:50.819Z,99.90
2022-09-23T09:07:36.113Z,99.90
2022-09-23T09:10:11.953Z,99.90
2022-09-23T09:12:45.507Z,99.90
2022-09-23T09:15:16.895Z,99.90
2022-09-23T09:17:53.035Z,99.90
2022-09-23T09:20:25.533Z,99.90
2022-09-23T09:22:57.670Z,99.90
2022-09-23T09:25:38.784Z,99.90
2022-09-23T09:28:16.666Z,99.90
2022-09-23T09:30:48.462Z,99.90
2022-09-23T09:33:19.408Z,99.90
2022-09-23T09:36:13.806Z,99.90
2022-09-23T09:38:41.873Z,99.90
2022-09-23T09:41:16.133Z,99.90
2022-09-23T09:43:52.363Z,99.90
2022-09-23T09:46:51.004Z,99.90
2022-09-23T09:49:28.547Z,99.90
2022-09-23T09:52:22.347Z,99.90
2022-09-23T09:54:51.075Z,99.90
2022-09-23T09:57:36.313Z,99.90
2022-09-23T10:00:35.552Z,99.90
2022-09-23T10:03:09.230Z,99.90
2022-09-23T10:05:52.327Z,99.90
2022-09-23T10:08:26.912Z,99.90
2022-09-23T10:11:02.362Z,99.90
2022-09-23T10:13:31.322Z,99.90
2022-09-23T10:16:04.055Z,99.90
2022-09-23T10:18:35.942Z,99.90
2022-09-23T10:21:09.509Z,99.90
2022-09-23T10:23:43.243Z,99.90
2022-09-23T10:26:13.352Z,99.90
2022-09-23T10:28:51.549Z,99.90
2022-09-23T10:31:26.263Z,99.90
2022-09-23T10:33:57.341Z,99.90
2022-09-23T10:36:25.473Z,99.90
2022-09-23T10:39:17.284Z,99.90
2022-09-23T10:42:13.635Z,99.90
2022-09-23T10:45:19.745Z,99.90
2022-09-23T10:47:59.498Z,99.90
2022-09-23T10:50:40.632Z,99.90
2022-09-23T10:53:18.970Z,99.90
2022-09-23T10:56:15.270Z,99.90
2022-09-23T10:59:18.757Z,99.90
2022-09-23T11:02:02.150Z,99.90
2022-09-23T11:04:55.279Z,99.90
2022-09-23T11:07:37.272Z,99.90
2022-09-23T11:10:45.827Z,99.90
2022-09-23T11:13:24.741Z,99.90
2022-09-23T11:16:03.754Z,99.90
2022-09-23T11:18:50.959Z,99.90
2022-09-23T11:21:45.899Z,99.90
2022-09-23T11:24:36.219Z,99.90
2022-09-23T11:27:16.592Z,99.90
2022-09-23T11:30:01.989Z,99.90
2022-09-23T11:33:06.058Z,99.90
2022-09-23T11:35:41.695Z,99.90
2022-09-23T11:38:14.213Z,99.90
2022-09-23T11:40:46.525Z,99.90
2022-09-23T11:43:23.468Z,99.90
2022-09-23T11:45:58.687Z,99.90
2022-09-23T11:48:33.488Z,99.90
2022-09-23T11:51:05.854Z,99.90
2022-09-23T11:53:43.997Z,99.90
2022-09-23T11:56:32.371Z,99.90
2022-09-23T11:59:07.528Z,99.90
2022-09-23T12:01:44.259Z,99.90
2022-09-23T12:04:21.452Z,99.90
2022-09-23T12:06:55.247Z,99.90
2022-09-23T12:09:54.032Z,99.90
2022-09-23T12:12:27.000Z,99.90
2022-09-23T12:15:01.902Z,99.90
2022-09-23T12:17:57.663Z,99.90
2022-09-23T12:20:54.545Z,99.90
2022-09-23T12:23:39.030Z,99.90
2022-09-23T12:26:14.651Z,99.90
2022-09-23T12:28:46.294Z,99.90
2022-09-23T12:31:17.294Z,99.90
2022-09-23T12:33:51.045Z,99.90
2022-09-23T12:36:27.830Z,99.90
2022-09-23T12:39:01.218Z,99.90
2022-09-23T12:41:35.399Z,99.90
2022-09-23T12:44:16.422Z,99.90
2022-09-23T12:46:46.326Z,99.90
2022-09-23T12:49:26.217Z,99.90
2022-09-23T12:52:26.183Z,99.90
2022-09-23T12:54:58.410Z,99.90
2022-09-23T12:57:43.711Z,99.90
2022-09-23T13:00:28.089Z,99.90
2022-09-23T13:03:18.174Z,99.90
2022-09-23T13:06:06.692Z,99.90
2022-09-23T13:08:38.996Z,99.90
2022-09-23T13:11:14.481Z,99.90
2022-09-23T13:13:46.686Z,99.90
2022-09-23T13:16:21.645Z,99.90
2022-09-23T13:18:54.237Z,99.90
2022-09-23T13:21:55.776Z,99.90
2022-09-23T13:24:39.618Z,99.90
2022-09-23T13:27:18.755Z,99.90
2022-09-23T13:29:54.595Z,99.90
2022-09-23T13:32:26.967Z,99.90
2022-09-23T13:34:59.683Z,99.90
2022-09-23T13:37:40.140Z,99.90
2022-09-23T13:40:18.516Z,99.90
2022-09-23T13:42:50.439Z,99.90
2022-09-23T13:45:22.458Z,99.90
2022-09-23T13:47:52.629Z,99.90
2022-09-23T13:50:22.726Z,99.90
2022-09-23T13:52:54.695Z,99.90
2022-09-23T13:55:31.511Z,99.90
2022-09-23T13:58:02.361Z,99.90
2022-09-23T14:00:37.967Z,99.90
2022-09-23T14:03:18.933Z,99.90
2022-09-23T14:05:47.968Z,99.90
2022-09-23T14:08:16.398Z,99.90
2022-09-23T14:10:46.956Z,99.90
2022-09-23T14:13:22.406Z,99.90
2022-09-23T14:15:58.222Z,99.90
2022-09-23T14:18:33.175Z,99.90
2022-09-23T14:21:01.466Z,99.90
2022-09-23T14:23:29.742Z,99.90
2022-09-23T14:25:58.973Z,99.90
2022-09-23T14:28:28.748Z,99.90
2022-09-23T14:30:59.459Z,99.90
2022-09-23T14:33:29.414Z,99.90
2022-09-23T14:36:06.523Z,99.90
2022-09-23T14:38:52.104Z,99.90
2022-09-23T14:41:24.052Z,99.90
2022-09-23T14:43:59.374Z,99.90
2022-09-23T14:46:31.054Z,99.90
2022-09-23T14:49:03.970Z,99.90
2022-09-23T14:51:36.355Z,99.90
2022-09-23T14:54:24.143Z,99.90
2022-09-23T14:56:52.234Z,99.90
2022-09-23T14:59:28.860Z,99.90
2022-09-23T15:01:58.604Z,99.90
2022-09-23T15:04:32.470Z,99.90
2022-09-23T15:07:07.118Z,99.90
2022-09-23T15:09:38.972Z,99.90
2022-09-23T15:12:11.703Z,99.90
2022-09-23T15:14:42.931Z,99.90
2022-09-23T15:17:25.620Z,99.90
2022-09-23T15:19:57.745Z,99.90
2022-09-23T15:22:26.702Z,99.90
2022-09-23T15:24:55.818Z,99.90
2022-09-23T15:27:32.172Z,99.90
2022-09-23T15:30:14.832Z,99.90
2022-09-23T15:32:45.107Z,99.90
2022-09-23T15:35:15.771Z,99.90
2022-09-23T15:37:44.458Z,99.90
2022-09-23T15:40:20.966Z,99.90
2022-09-23T15:42:52.554Z,99.90
2022-09-23T15:45:22.352Z,99.90
2022-09-23T15:47:52.374Z,99.90
2022-09-23T15:50:20.800Z,99.90
2022-09-23T15:52:49.039Z,99.90
2022-09-23T15:55:21.877Z,99.90
2022-09-23T15:57:50.301Z,99.90
2022-09-23T16:00:18.676Z,99.90
2022-09-23T16:02:48.595Z,99.90
2022-09-23T16:05:24.548Z,99.90
2022-09-23T16:07:53.411Z,99.90
2022-09-23T16:10:23.578Z,99.90
2022-09-23T16:12:54.189Z,99.90
2022-09-23T16:15:24.650Z,99.90
2022-09-23T16:17:52.832Z,99.90
2022-09-23T16:20:23.432Z,99.90
2022-09-23T16:22:56.056Z,99.90
2022-09-23T16:25:28.203Z,99.90
2022-09-23T16:27:57.142Z,99.90
2022-09-23T16:30:26.426Z,99.90
2022-09-23T16:32:54.892Z,99.90
2022-09-23T16:35:26.473Z,99.90
2022-09-23T16:37:55.780Z,99.90
2022-09-23T16:40:24.718Z,99.90
2022-09-23T16:42:54.903Z,99.90
2022-09-23T16:45:24.159Z,99.90
2022-09-23T16:47:54.328Z,99.90
2022-09-23T16:50:27.045Z,99.90
2022-09-23T16:52:56.558Z,99.90
2022-09-23T16:55:27.465Z,99.90
2022-09-23T16:57:56.400Z,99.90
2022-09-23T17:00:42.726Z,99.90
2022-09-23T17:03:31.040Z,99.90
2022-09-23T17:06:03.384Z,99.90
2022-09-23T17:08:34.286Z,99.90
2022-09-23T17:11:03.082Z,99.90
2022-09-23T17:13:32.458Z,99.90
2022-09-23T17:16:00.910Z,99.90
2022-09-23T17:18:29.738Z,99.90
2022-09-23T17:21:01.927Z,99.90
2022-09-23T17:23:31.753Z,99.90
2022-09-23T17:26:00.763Z,99.90
2022-09-23T17:28:29.292Z,99.90
2022-09-23T17:30:59.073Z,99.90
2022-09-23T17:33:28.289Z,99.90
2022-09-23T17:35:56.781Z,99.90
2022-09-23T17:38:29.141Z,99.90
2022-09-23T17:41:01.224Z,99.90
2022-09-23T17:43:31.113Z,99.90
2022-09-23T17:46:05.253Z,99.90
2022-09-23T17:48:35.117Z,99.90
2022-09-23T17:51:05.031Z,99.90
2022-09-23T17:53:37.005Z,99.90
2022-09-23T17:56:07.278Z,99.90
2022-09-23T17:58:36.801Z,99.90
2022-09-23T18:01:06.163Z,99.90
2022-09-23T18:03:34.331Z,99.90
2022-09-23T18:06:10.764Z,99.90
2022-09-23T18:08:41.698Z,99.90
2022-09-23T18:11:18.507Z,99.90
2022-09-23T18:13:51.599Z,99.90
2022-09-23T18:16:20.672Z,99.90
2022-09-23T18:18:52.542Z,99.90
2022-09-23T18:21:21.123Z,99.90
2022-09-23T18:23:50.829Z,99.90
2022-09-23T18:26:22.538Z,99.90
2022-09-23T18:28:52.824Z,99.90
2022-09-23T18:31:22.588Z,99.90
2022-09-23T18:33:51.605Z,99.90
2022-09-23T18:36:20.461Z,99.90
2022-09-23T18:38:50.614Z,99.90
2022-09-23T18:41:19.623Z,99.90
2022-09-23T18:43:48.733Z,99.90
2022-09-23T18:46:18.709Z,99.90
2022-09-23T18:49:04.584Z,99.90
2022-09-23T18:51:34.841Z,99.90
2022-09-23T18:54:06.103Z,99.90
2022-09-23T18:56:39.648Z,99.90
2022-09-23T18:59:09.695Z,99.90
2022-09-23T19:01:38.043Z,99.90
2022-09-23T19:04:07.133Z,99.90
2022-09-23T19:06:35.954Z,99.90
2022-09-23T19:09:06.588Z,99.90
2022-09-23T19:11:36.268Z,99.90
2022-09-23T19:14:06.448Z,99.90
2022-09-23T19:16:35.604Z,99.90
2022-09-23T19:19:05.030Z,99.90
2022-09-23T19:21:34.135Z,99.90
2022-09-23T19:24:04.439Z,99.90
2022-09-23T19:26:35.660Z,99.90
2022-09-23T19:29:04.478Z,99.90
2022-09-23T19:31:34.255Z,99.90
2022-09-23T19:34:04.618Z,99.90
2022-09-23T19:36:36.865Z,99.90
2022-09-23T19:39:06.899Z,99.90
2022-09-23T19:41:36.411Z,99.90
2022-09-23T19:44:07.289Z,99.90
2022-09-23T19:46:37.864Z,99.90
2022-09-23T19:49:08.098Z,99.90
2022-09-23T19:51:36.738Z,99.90
2022-09-23T19:54:07.114Z,99.90
2022-09-23T19:56:37.618Z,99.90
2022-09-23T19:59:09.398Z,99.90
2022-09-23T20:01:38.022Z,99.90
2022-09-23T20:04:06.258Z,99.90
2022-09-23T20:06:37.998Z,99.90
2022-09-23T20:09:06.751Z,99.90
2022-09-23T20:11:36.205Z,99.90
2022-09-23T20:14:06.129Z,99.90
2022-09-23T20:16:36.973Z,99.90
2022-09-23T20:19:06.079Z,99.90
2022-09-23T20:21:35.431Z,99.90
2022-09-23T20:24:06.539Z,1.00
2022-09-23T20:26:53.785Z,1.00
2022-09-23T20:29:22.025Z,1.00
2022-09-23T20:31:50.593Z,1.00
2022-09-23T20:34:21.077Z,1.00
2022-09-23T20:36:49.245Z,1.00
2022-09-23T20:39:17.500Z,1.00
2022-09-23T20:41:48.208Z,1.00
2022-09-23T20:44:16.535Z,1.00
2022-09-23T20:46:48.581Z,1.00
2022-09-23T20:49:17.990Z,1.00
2022-09-23T20:51:48.223Z,1.00
2022-09-23T20:54:18.998Z,1.00
2022-09-23T20:56:49.802Z,1.00
2022-09-23T20:59:18.315Z,1.00
2022-09-23T21:01:47.735Z,1.00
2022-09-23T21:04:16.334Z,1.00
2022-09-23T21:06:44.627Z,1.00
2022-09-23T21:09:12.916Z,1.00
2022-09-23T21:11:42.204Z,1.00
2022-09-23T21:14:12.822Z,1.00
2022-09-23T21:16:41.564Z,1.00
2022-09-23T21:19:09.783Z,1.00
2022-09-23T21:21:38.001Z,1.00
2022-09-23T21:24:37.790Z,1.00
2022-09-23T21:26:54.894Z,1.00
2022-09-23T21:29:24.440Z,1.00
2022-09-23T21:31:52.945Z,1.00
2022-09-23T21:34:21.166Z,1.00
2022-09-23T21:36:49.710Z,12.80
2022-09-23T21:39:17.886Z,54.50
2022-09-23T21:41:45.979Z,39.00
2022-09-23T21:44:14.067Z,13.20
2022-09-23T21:46:43.903Z,10.20
2022-09-23T21:49:12.021Z,67.30
2022-09-23T21:51:41.772Z,99.90
2022-09-23T21:54:14.066Z,99.90
2022-09-23T21:56:43.229Z,99.90
2022-09-23T21:59:11.665Z,99.90
2022-09-23T22:01:43.550Z,99.90
2022-09-23T22:04:17.107Z,99.90
2022-09-23T22:06:46.102Z,99.90
2022-09-23T22:09:16.920Z,99.90
2022-09-23T22:12:03.029Z,99.90
2022-09-23T22:14:31.221Z,99.90
2022-09-23T22:17:01.469Z,99.90
2022-09-23T22:19:35.359Z,99.90
2022-09-23T22:22:07.663Z,99.90
2022-09-23T22:24:35.799Z,99.90
2022-09-23T22:27:03.879Z,1.00
2022-09-23T22:29:49.312Z,1.00
2022-09-23T22:32:34.937Z,1.00
2022-09-23T22:35:04.879Z,1.00
2022-09-23T22:37:35.272Z,1.00
2022-09-23T22:40:04.827Z,1.00
2022-09-23T22:42:33.140Z,27.20
2022-09-23T22:45:01.227Z,1.00
2022-09-23T22:47:29.294Z,99.90
2022-09-23T22:49:57.343Z,43.20
2022-09-23T22:52:26.839Z,14.60
2022-09-23T22:54:54.904Z,1.00
2022-09-23T22:57:22.987Z,1.00
2022-09-23T22:59:51.053Z,1.00
2022-09-23T23:02:21.424Z,64.80
2022-09-23T23:04:50.436Z,1.00
2022-09-23T23:07:21.498Z,1.00
2022-09-23T23:09:52.486Z,1.00
2022-09-23T23:12:21.052Z,1.00
2022-09-23T23:14:50.089Z,1.00
2022-09-23T23:17:19.035Z,1.00
2022-09-23T23:19:47.534Z,1.00
2022-09-23T23:22:15.560Z,1.00
2022-09-23T23:24:43.617Z,1.00
2022-09-23T23:27:13.076Z,1.00
2022-09-23T23:29:41.218Z,48.50
2022-09-23T23:32:09.833Z,99.90
2022-09-23T23:34:37.983Z,99.90
2022-09-23T23:37:06.370Z,99.90
2022-09-23T23:39:35.530Z,1.00
2022-09-23T23:42:04.195Z,1.00
2022-09-23T23:44:34.465Z,90.00
2022-09-23T23:47:02.946Z,99.90
2022-09-23T23:49:31.142Z,99.90
2022-09-23T23:51:59.215Z,99.90
2022-09-23T23:54:27.408Z,99.90
2022-09-23T23:56:55.535Z,99.90
2022-09-23T23:59:23.749Z,99.90
